Terminal Aerodrome Forecast
Issued by NWS Omaha/Valley, NE

Home | Current Version | Previous Version | Text Only | Print | Product List | Glossary On
Versions: 1 2 3 4 5 6 7 8 9 10 11 12 13 14 15 16 17 18 19
000
FTUS43 KOAX 221721
TAFOFK
TAF
KOFK 221721Z 2218/2318 22012G20KT P6SM SKC
     FM230000 27007KT P6SM SKC
     FM230900 27007KT P6SM SKC WS020/34040KT
     FM231300 31015G25KT P6SM SKC
     FM231700 31024G34KT P6SM SCT250=

USA.gov is the U.S. government's official web portal to all federal, state and local government web resources and services.